sensor_id;sensor_type;location;lat;lon;timestamp;temperature;humidity
78649;DHT22;67962;47.310;9.642;2023-04-03T00:02:07;10.10;67.30
78649;DHT22;67962;47.310;9.642;2023-04-03T00:04:33;10.10;67.40
78649;DHT22;67962;47.310;9.642;2023-04-03T00:06:59;10.00;67.10
78649;DHT22;67962;47.310;9.642;2023-04-03T00:09:25;10.10;67.50
78649;DHT22;67962;47.310;9.642;2023-04-03T00:11:50;10.00;67.10
78649;DHT22;67962;47.310;9.642;2023-04-03T00:14:16;9.90;67.40
78649;DHT22;67962;47.310;9.642;2023-04-03T00:16:42;9.90;67.80
78649;DHT22;67962;47.310;9.642;2023-04-03T00:19:08;9.90;67.60
78649;DHT22;67962;47.310;9.642;2023-04-03T00:21:33;9.90;67.40
78649;DHT22;67962;47.310;9.642;2023-04-03T00:23:59;9.80;67.30
78649;DHT22;67962;47.310;9.642;2023-04-03T00:26:25;9.80;67.30
78649;DHT22;67962;47.310;9.642;2023-04-03T00:28:50;9.80;67.20
78649;DHT22;67962;47.310;9.642;2023-04-03T00:31:16;9.80;67.00
78649;DHT22;67962;47.310;9.642;2023-04-03T00:33:42;9.70;67.40
78649;DHT22;67962;47.310;9.642;2023-04-03T00:36:09;9.60;67.20
78649;DHT22;67962;47.310;9.642;2023-04-03T00:38:36;9.60;67.70
78649;DHT22;67962;47.310;9.642;2023-04-03T00:41:02;9.70;67.20
78649;DHT22;67962;47.310;9.642;2023-04-03T00:43:28;9.70;66.50
78649;DHT22;67962;47.310;9.642;2023-04-03T00:45:56;9.60;66.60
78649;DHT22;67962;47.310;9.642;2023-04-03T00:48:36;9.60;66.50
78649;DHT22;67962;47.310;9.642;2023-04-03T00:51:04;9.50;65.90
78649;DHT22;67962;47.310;9.642;2023-04-03T00:53:38;9.50;66.50
78649;DHT22;67962;47.310;9.642;2023-04-03T00:56:07;9.50;66.10
78649;DHT22;67962;47.310;9.642;2023-04-03T00:58:40;9.40;66.40
78649;DHT22;67962;47.310;9.642;2023-04-03T01:01:09;9.50;66.70
78649;DHT22;67962;47.310;9.642;2023-04-03T01:03:38;9.60;66.40
78649;DHT22;67962;47.310;9.642;2023-04-03T01:06:03;9.60;66.10
78649;DHT22;67962;47.310;9.642;2023-04-03T01:08:30;9.60;65.20
78649;DHT22;67962;47.310;9.642;2023-04-03T01:10:56;9.70;64.30
78649;DHT22;67962;47.310;9.642;2023-04-03T01:13:28;9.50;64.70
78649;DHT22;67962;47.310;9.642;2023-04-03T01:15:54;9.40;64.60
78649;DHT22;67962;47.310;9.642;2023-04-03T01:18:22;9.40;65.60
78649;DHT22;67962;47.310;9.642;2023-04-03T01:26:28;9.30;65.20
78649;DHT22;67962;47.310;9.642;2023-04-03T01:28:54;9.20;64.50
78649;DHT22;67962;47.310;9.642;2023-04-03T01:31:28;9.20;64.50
78649;DHT22;67962;47.310;9.642;2023-04-03T01:33:56;9.20;63.90
78649;DHT22;67962;47.310;9.642;2023-04-03T01:36:28;9.00;63.60
78649;DHT22;67962;47.310;9.642;2023-04-03T01:38:55;9.00;64.30
78649;DHT22;67962;47.310;9.642;2023-04-03T01:41:21;9.00;63.80
78649;DHT22;67962;47.310;9.642;2023-04-03T01:43:48;8.90;63.40
78649;DHT22;67962;47.310;9.642;2023-04-03T01:46:15;8.80;63.70
78649;DHT22;67962;47.310;9.642;2023-04-03T01:48:41;8.70;63.40
78649;DHT22;67962;47.310;9.642;2023-04-03T01:51:07;8.70;63.50
78649;DHT22;67962;47.310;9.642;2023-04-03T01:53:32;8.70;62.90
78649;DHT22;67962;47.310;9.642;2023-04-03T01:55:58;8.60;64.00
78649;DHT22;67962;47.310;9.642;2023-04-03T01:58:24;8.60;62.90
78649;DHT22;67962;47.310;9.642;2023-04-03T02:00:51;8.60;63.10
78649;DHT22;67962;47.310;9.642;2023-04-03T02:03:17;8.60;62.30
78649;DHT22;67962;47.310;9.642;2023-04-03T02:05:43;8.50;62.90
78649;DHT22;67962;47.310;9.642;2023-04-03T02:08:08;8.50;62.50
78649;DHT22;67962;47.310;9.642;2023-04-03T02:10:34;8.60;62.40
78649;DHT22;67962;47.310;9.642;2023-04-03T02:13:00;8.50;62.10
78649;DHT22;67962;47.310;9.642;2023-04-03T02:15:26;8.60;61.30
78649;DHT22;67962;47.310;9.642;2023-04-03T02:17:52;8.50;61.10
78649;DHT22;67962;47.310;9.642;2023-04-03T02:20:18;8.40;61.70
78649;DHT22;67962;47.310;9.642;2023-04-03T02:22:44;8.40;62.30
78649;DHT22;67962;47.310;9.642;2023-04-03T02:25:10;8.50;61.20
78649;DHT22;67962;47.310;9.642;2023-04-03T02:27:36;8.40;60.80
78649;DHT22;67962;47.310;9.642;2023-04-03T02:30:03;8.30;61.10
78649;DHT22;67962;47.310;9.642;2023-04-03T02:32:29;8.30;61.30
78649;DHT22;67962;47.310;9.642;2023-04-03T02:34:55;8.30;60.70
78649;DHT22;67962;47.310;9.642;2023-04-03T02:37:20;8.20;61.90
78649;DHT22;67962;47.310;9.642;2023-04-03T02:39:46;8.20;61.70
78649;DHT22;67962;47.310;9.642;2023-04-03T02:42:12;8.10;61.30
78649;DHT22;67962;47.310;9.642;2023-04-03T02:44:38;8.00;62.00
78649;DHT22;67962;47.310;9.642;2023-04-03T02:47:04;8.10;62.40
78649;DHT22;67962;47.310;9.642;2023-04-03T02:49:31;8.20;62.80
78649;DHT22;67962;47.310;9.642;2023-04-03T02:51:56;8.30;62.30
78649;DHT22;67962;47.310;9.642;2023-04-03T02:54:22;8.30;61.90
78649;DHT22;67962;47.310;9.642;2023-04-03T02:56:49;8.20;62.30
78649;DHT22;67962;47.310;9.642;2023-04-03T02:59:15;8.20;62.40
78649;DHT22;67962;47.310;9.642;2023-04-03T03:01:41;8.10;61.90
78649;DHT22;67962;47.310;9.642;2023-04-03T03:04:07;8.10;61.70
78649;DHT22;67962;47.310;9.642;2023-04-03T03:06:32;8.00;61.00
78649;DHT22;67962;47.310;9.642;2023-04-03T03:08:58;7.90;62.10
78649;DHT22;67962;47.310;9.642;2023-04-03T03:11:24;7.70;62.10
78649;DHT22;67962;47.310;9.642;2023-04-03T03:13:50;7.70;62.60
78649;DHT22;67962;47.310;9.642;2023-04-03T03:16:16;7.70;62.70
78649;DHT22;67962;47.310;9.642;2023-04-03T03:18:42;7.70;62.90
78649;DHT22;67962;47.310;9.642;2023-04-03T03:21:09;7.70;62.30
78649;DHT22;67962;47.310;9.642;2023-04-03T03:23:36;7.60;62.10
78649;DHT22;67962;47.310;9.642;2023-04-03T03:26:07;7.50;61.60
78649;DHT22;67962;47.310;9.642;2023-04-03T03:28:34;7.50;62.30
78649;DHT22;67962;47.310;9.642;2023-04-03T03:31:00;7.40;62.20
78649;DHT22;67962;47.310;9.642;2023-04-03T03:33:26;7.40;63.40
78649;DHT22;67962;47.310;9.642;2023-04-03T03:35:53;7.40;62.80
78649;DHT22;67962;47.310;9.642;2023-04-03T03:38:19;7.30;62.90
78649;DHT22;67962;47.310;9.642;2023-04-03T03:40:47;7.30;62.40
78649;DHT22;67962;47.310;9.642;2023-04-03T03:43:14;7.30;62.40
78649;DHT22;67962;47.310;9.642;2023-04-03T03:45:40;7.20;62.60
78649;DHT22;67962;47.310;9.642;2023-04-03T03:48:05;7.10;62.50
78649;DHT22;67962;47.310;9.642;2023-04-03T03:50:31;7.00;63.30
78649;DHT22;67962;47.310;9.642;2023-04-03T03:52:57;7.00;63.20
78649;DHT22;67962;47.310;9.642;2023-04-03T03:55:23;7.10;62.40
78649;DHT22;67962;47.310;9.642;2023-04-03T03:57:49;7.00;62.10
78649;DHT22;67962;47.310;9.642;2023-04-03T04:00:15;6.80;62.50
78649;DHT22;67962;47.310;9.642;2023-04-03T04:02:40;6.80;63.20
78649;DHT22;67962;47.310;9.642;2023-04-03T04:05:06;6.90;63.50
78649;DHT22;67962;47.310;9.642;2023-04-03T04:07:32;7.00;63.00
78649;DHT22;67962;47.310;9.642;2023-04-03T04:09:58;7.10;62.70
78649;DHT22;67962;47.310;9.642;2023-04-03T04:12:24;7.20;62.00
78649;DHT22;67962;47.310;9.642;2023-04-03T04:14:50;7.20;62.10
78649;DHT22;67962;47.310;9.642;2023-04-03T04:17:15;7.20;61.50
78649;DHT22;67962;47.310;9.642;2023-04-03T04:19:41;7.20;61.50
78649;DHT22;67962;47.310;9.642;2023-04-03T04:22:07;7.20;61.30
78649;DHT22;67962;47.310;9.642;2023-04-03T04:24:33;7.10;61.20
78649;DHT22;67962;47.310;9.642;2023-04-03T04:26:58;7.10;61.90
78649;DHT22;67962;47.310;9.642;2023-04-03T04:29:24;7.00;61.20
78649;DHT22;67962;47.310;9.642;2023-04-03T04:31:50;6.80;62.10
78649;DHT22;67962;47.310;9.642;2023-04-03T04:34:16;6.70;62.20
78649;DHT22;67962;47.310;9.642;2023-04-03T04:36:41;6.70;62.40
78649;DHT22;67962;47.310;9.642;2023-04-03T04:39:07;6.70;62.20
78649;DHT22;67962;47.310;9.642;2023-04-03T04:41:33;6.60;62.40
78649;DHT22;67962;47.310;9.642;2023-04-03T04:43:59;6.70;61.70
78649;DHT22;67962;47.310;9.642;2023-04-03T04:46:25;6.80;61.70
78649;DHT22;67962;47.310;9.642;2023-04-03T04:48:52;6.70;60.50
78649;DHT22;67962;47.310;9.642;2023-04-03T04:51:17;6.60;61.20
78649;DHT22;67962;47.310;9.642;2023-04-03T04:53:43;6.50;61.60
78649;DHT22;67962;47.310;9.642;2023-04-03T04:56:09;6.50;61.10
78649;DHT22;67962;47.310;9.642;2023-04-03T04:58:35;6.50;61.40
78649;DHT22;67962;47.310;9.642;2023-04-03T05:01:07;6.50;62.10
78649;DHT22;67962;47.310;9.642;2023-04-03T05:03:33;6.40;62.50
78649;DHT22;67962;47.310;9.642;2023-04-03T05:05:59;6.40;62.50
78649;DHT22;67962;47.310;9.642;2023-04-03T05:08:26;6.50;62.30
78649;DHT22;67962;47.310;9.642;2023-04-03T05:10:51;6.50;62.10
78649;DHT22;67962;47.310;9.642;2023-04-03T05:13:18;6.50;61.90
78649;DHT22;67962;47.310;9.642;2023-04-03T05:15:44;6.50;61.40
78649;DHT22;67962;47.310;9.642;2023-04-03T05:18:10;6.40;61.40
78649;DHT22;67962;47.310;9.642;2023-04-03T05:20:36;6.50;61.50
78649;DHT22;67962;47.310;9.642;2023-04-03T05:23:02;6.40;61.50
78649;DHT22;67962;47.310;9.642;2023-04-03T05:25:29;6.40;61.80
78649;DHT22;67962;47.310;9.642;2023-04-03T05:27:55;6.40;62.40
78649;DHT22;67962;47.310;9.642;2023-04-03T05:30:21;6.30;62.40
78649;DHT22;67962;47.310;9.642;2023-04-03T05:32:47;6.20;62.80
78649;DHT22;67962;47.310;9.642;2023-04-03T05:35:13;6.30;63.00
78649;DHT22;67962;47.310;9.642;2023-04-03T05:37:39;6.40;63.00
78649;DHT22;67962;47.310;9.642;2023-04-03T05:40:06;6.50;62.80
78649;DHT22;67962;47.310;9.642;2023-04-03T05:42:32;6.50;62.30
78649;DHT22;67962;47.310;9.642;2023-04-03T05:44:58;6.50;62.00
78649;DHT22;67962;47.310;9.642;2023-04-03T05:47:24;6.50;62.60
78649;DHT22;67962;47.310;9.642;2023-04-03T05:49:50;6.40;62.30
78649;DHT22;67962;47.310;9.642;2023-04-03T05:54:44;6.50;62.50
78649;DHT22;67962;47.310;9.642;2023-04-03T05:57:12;6.50;62.60
78649;DHT22;67962;47.310;9.642;2023-04-03T05:59:37;6.70;62.90
78649;DHT22;67962;47.310;9.642;2023-04-03T06:02:03;6.70;62.10
78649;DHT22;67962;47.310;9.642;2023-04-03T06:04:29;6.60;61.70
78649;DHT22;67962;47.310;9.642;2023-04-03T06:06:58;6.50;62.00
78649;DHT22;67962;47.310;9.642;2023-04-03T06:09:26;6.50;62.70
78649;DHT22;67962;47.310;9.642;2023-04-03T06:11:52;6.50;62.50
78649;DHT22;67962;47.310;9.642;2023-04-03T06:14:19;6.50;62.90
78649;DHT22;67962;47.310;9.642;2023-04-03T06:16:45;6.60;63.60
78649;DHT22;67962;47.310;9.642;2023-04-03T06:19:11;6.60;62.60
78649;DHT22;67962;47.310;9.642;2023-04-03T06:21:38;6.50;62.50
78649;DHT22;67962;47.310;9.642;2023-04-03T06:24:04;6.40;62.90
78649;DHT22;67962;47.310;9.642;2023-04-03T06:26:30;6.30;63.60
78649;DHT22;67962;47.310;9.642;2023-04-03T06:28:56;6.40;64.00
78649;DHT22;67962;47.310;9.642;2023-04-03T06:31:22;6.50;63.90
78649;DHT22;67962;47.310;9.642;2023-04-03T06:33:48;6.50;63.90
78649;DHT22;67962;47.310;9.642;2023-04-03T06:36:13;6.60;63.90
78649;DHT22;67962;47.310;9.642;2023-04-03T06:38:39;6.60;63.40
78649;DHT22;67962;47.310;9.642;2023-04-03T06:41:05;6.60;63.70
78649;DHT22;67962;47.310;9.642;2023-04-03T06:43:31;6.70;64.10
78649;DHT22;67962;47.310;9.642;2023-04-03T06:45:57;6.80;64.00
78649;DHT22;67962;47.310;9.642;2023-04-03T06:48:23;6.90;64.30
78649;DHT22;67962;47.310;9.642;2023-04-03T06:50:49;6.90;63.80
78649;DHT22;67962;47.310;9.642;2023-04-03T06:53:14;6.90;64.00
78649;DHT22;67962;47.310;9.642;2023-04-03T06:55:41;6.90;63.70
78649;DHT22;67962;47.310;9.642;2023-04-03T06:58:07;6.90;64.20
78649;DHT22;67962;47.310;9.642;2023-04-03T07:00:33;6.80;64.10
78649;DHT22;67962;47.310;9.642;2023-04-03T07:02:59;6.70;64.70
78649;DHT22;67962;47.310;9.642;2023-04-03T07:05:25;6.70;65.20
78649;DHT22;67962;47.310;9.642;2023-04-03T07:07:52;6.70;65.50
78649;DHT22;67962;47.310;9.642;2023-04-03T07:10:18;6.80;65.60
78649;DHT22;67962;47.310;9.642;2023-04-03T07:12:44;6.90;65.50
78649;DHT22;67962;47.310;9.642;2023-04-03T07:15:11;7.00;65.30
78649;DHT22;67962;47.310;9.642;2023-04-03T07:17:38;7.10;65.50
78649;DHT22;67962;47.310;9.642;2023-04-03T07:20:04;7.10;65.40
78649;DHT22;67962;47.310;9.642;2023-04-03T07:22:31;7.10;65.40
78649;DHT22;67962;47.310;9.642;2023-04-03T07:24:57;7.00;65.20
78649;DHT22;67962;47.310;9.642;2023-04-03T07:27:24;7.10;66.50
78649;DHT22;67962;47.310;9.642;2023-04-03T07:29:50;7.10;66.40
78649;DHT22;67962;47.310;9.642;2023-04-03T07:32:16;7.10;66.00
78649;DHT22;67962;47.310;9.642;2023-04-03T07:34:43;7.00;65.80
78649;DHT22;67962;47.310;9.642;2023-04-03T07:37:09;7.10;65.80
78649;DHT22;67962;47.310;9.642;2023-04-03T07:39:35;7.20;65.70
78649;DHT22;67962;47.310;9.642;2023-04-03T07:42:01;7.40;66.00
78649;DHT22;67962;47.310;9.642;2023-04-03T07:44:28;7.40;66.40
78649;DHT22;67962;47.310;9.642;2023-04-03T07:46:54;7.40;66.00
78649;DHT22;67962;47.310;9.642;2023-04-03T07:49:22;7.30;65.60
78649;DHT22;67962;47.310;9.642;2023-04-03T07:51:49;7.40;65.60
78649;DHT22;67962;47.310;9.642;2023-04-03T07:54:15;7.50;65.50
78649;DHT22;67962;47.310;9.642;2023-04-03T07:56:41;7.60;65.00
78649;DHT22;67962;47.310;9.642;2023-04-03T07:59:09;7.60;64.80
78649;DHT22;67962;47.310;9.642;2023-04-03T08:01:34;7.60;63.80
78649;DHT22;67962;47.310;9.642;2023-04-03T08:04:01;7.50;63.10
78649;DHT22;67962;47.310;9.642;2023-04-03T08:06:27;7.50;63.90
78649;DHT22;67962;47.310;9.642;2023-04-03T08:08:54;7.50;64.70
78649;DHT22;67962;47.310;9.642;2023-04-03T08:11:20;7.60;65.10
78649;DHT22;67962;47.310;9.642;2023-04-03T08:13:46;7.70;65.10
78649;DHT22;67962;47.310;9.642;2023-04-03T08:16:16;7.80;65.10
78649;DHT22;67962;47.310;9.642;2023-04-03T08:18:42;7.70;65.40
78649;DHT22;67962;47.310;9.642;2023-04-03T08:21:10;7.70;65.10
78649;DHT22;67962;47.310;9.642;2023-04-03T08:23:37;7.80;64.00
78649;DHT22;67962;47.310;9.642;2023-04-03T08:26:11;7.70;64.30
78649;DHT22;67962;47.310;9.642;2023-04-03T08:28:37;7.70;64.70
78649;DHT22;67962;47.310;9.642;2023-04-03T08:31:05;7.70;65.00
78649;DHT22;67962;47.310;9.642;2023-04-03T08:33:32;7.50;63.60
78649;DHT22;67962;47.310;9.642;2023-04-03T08:35:59;7.60;64.80
78649;DHT22;67962;47.310;9.642;2023-04-03T08:38:25;7.50;65.00
78649;DHT22;67962;47.310;9.642;2023-04-03T08:41:25;7.60;65.30
78649;DHT22;67962;47.310;9.642;2023-04-03T08:49:26;7.70;64.10
78649;DHT22;67962;47.310;9.642;2023-04-03T08:51:55;7.70;63.60
78649;DHT22;67962;47.310;9.642;2023-04-03T08:54:29;7.60;63.00
78649;DHT22;67962;47.310;9.642;2023-04-03T08:56:56;7.60;63.80
78649;DHT22;67962;47.310;9.642;2023-04-03T08:59:28;7.60;64.40
78649;DHT22;67962;47.310;9.642;2023-04-03T09:01:57;7.60;64.80
78649;DHT22;67962;47.310;9.642;2023-04-03T09:04:26;7.80;64.90
78649;DHT22;67962;47.310;9.642;2023-04-03T09:06:57;8.00;64.60
78649;DHT22;67962;47.310;9.642;2023-04-03T09:09:39;8.10;63.50
78649;DHT22;67962;47.310;9.642;2023-04-03T09:12:26;8.20;64.30
78649;DHT22;67962;47.310;9.642;2023-04-03T09:15:16;8.20;63.20
78649;DHT22;67962;47.310;9.642;2023-04-03T09:20:54;8.30;62.90
78649;DHT22;67962;47.310;9.642;2023-04-03T09:23:40;8.30;63.40
78649;DHT22;67962;47.310;9.642;2023-04-03T09:26:25;8.20;63.60
78649;DHT22;67962;47.310;9.642;2023-04-03T09:28:54;8.30;63.70
78649;DHT22;67962;47.310;9.642;2023-04-03T09:31:32;8.30;63.50
78649;DHT22;67962;47.310;9.642;2023-04-03T09:34:04;8.30;64.10
78649;DHT22;67962;47.310;9.642;2023-04-03T09:36:52;8.40;63.50
78649;DHT22;67962;47.310;9.642;2023-04-03T09:39:19;8.40;63.60
78649;DHT22;67962;47.310;9.642;2023-04-03T09:44:24;8.40;63.50
78649;DHT22;67962;47.310;9.642;2023-04-03T09:46:50;8.50;63.50
78649;DHT22;67962;47.310;9.642;2023-04-03T09:49:17;8.40;62.00
78649;DHT22;67962;47.310;9.642;2023-04-03T09:51:43;8.30;62.10
78649;DHT22;67962;47.310;9.642;2023-04-03T09:56:56;8.20;63.00
78649;DHT22;67962;47.310;9.642;2023-04-03T09:59:23;8.20;63.00
78649;DHT22;67962;47.310;9.642;2023-04-03T10:02:03;8.30;63.50
78649;DHT22;67962;47.310;9.642;2023-04-03T10:04:40;8.40;63.10
78649;DHT22;67962;47.310;9.642;2023-04-03T10:07:27;8.40;62.90
78649;DHT22;67962;47.310;9.642;2023-04-03T10:09:58;8.50;63.20
78649;DHT22;67962;47.310;9.642;2023-04-03T10:12:24;8.60;62.30
78649;DHT22;67962;47.310;9.642;2023-04-03T10:14:57;8.60;62.20
78649;DHT22;67962;47.310;9.642;2023-04-03T10:18:00;8.40;62.00
78649;DHT22;67962;47.310;9.642;2023-04-03T10:20:30;8.40;62.40
78649;DHT22;67962;47.310;9.642;2023-04-03T10:23:17;8.40;63.40
78649;DHT22;67962;47.310;9.642;2023-04-03T10:26:13;8.50;62.50
78649;DHT22;67962;47.310;9.642;2023-04-03T10:47:16;8.70;61.70
78649;DHT22;67962;47.310;9.642;2023-04-03T10:55:43;8.70;62.30
78649;DHT22;67962;47.310;9.642;2023-04-03T10:58:30;8.80;62.20
78649;DHT22;67962;47.310;9.642;2023-04-03T11:01:02;8.90;61.80
78649;DHT22;67962;47.310;9.642;2023-04-03T11:03:41;9.10;61.70
78649;DHT22;67962;47.310;9.642;2023-04-03T11:06:11;9.20;61.20
78649;DHT22;67962;47.310;9.642;2023-04-03T11:08:51;9.30;59.90
78649;DHT22;67962;47.310;9.642;2023-04-03T11:11:32;9.30;60.50
78649;DHT22;67962;47.310;9.642;2023-04-03T11:14:13;9.40;60.10
78649;DHT22;67962;47.310;9.642;2023-04-03T11:16:48;9.50;58.40
78649;DHT22;67962;47.310;9.642;2023-04-03T11:19:22;9.50;59.10
78649;DHT22;67962;47.310;9.642;2023-04-03T11:23:00;9.60;58.70
78649;DHT22;67962;47.310;9.642;2023-04-03T11:27:46;9.90;58.30
78649;DHT22;67962;47.310;9.642;2023-04-03T11:30:27;10.00;57.60
78649;DHT22;67962;47.310;9.642;2023-04-03T11:35:29;10.10;57.20
78649;DHT22;67962;47.310;9.642;2023-04-03T11:37:56;10.20;57.50
78649;DHT22;67962;47.310;9.642;2023-04-03T11:40:26;10.20;56.00
78649;DHT22;67962;47.310;9.642;2023-04-03T11:43:24;10.10;57.20
78649;DHT22;67962;47.310;9.642;2023-04-03T11:46:05;10.20;55.40
78649;DHT22;67962;47.310;9.642;2023-04-03T11:53:39;10.40;56.20
78649;DHT22;67962;47.310;9.642;2023-04-03T12:04:19;11.20;52.10
78649;DHT22;67962;47.310;9.642;2023-04-03T12:09:25;11.40;53.90
78649;DHT22;67962;47.310;9.642;2023-04-03T12:11:52;11.50;53.20
78649;DHT22;67962;47.310;9.642;2023-04-03T12:14:18;11.60;52.90
78649;DHT22;67962;47.310;9.642;2023-04-03T12:16:47;11.60;51.80
78649;DHT22;67962;47.310;9.642;2023-04-03T12:24:31;12.10;50.20
78649;DHT22;67962;47.310;9.642;2023-04-03T12:40:36;11.40;50.00
78649;DHT22;67962;47.310;9.642;2023-04-03T12:46:23;11.90;50.00
78649;DHT22;67962;47.310;9.642;2023-04-03T12:48:27;11.90;51.30
78649;DHT22;67962;47.310;9.642;2023-04-03T12:50:55;12.00;49.90
78649;DHT22;67962;47.310;9.642;2023-04-03T12:53:27;11.90;50.10
78649;DHT22;67962;47.310;9.642;2023-04-03T12:55:57;11.90;49.20
78649;DHT22;67962;47.310;9.642;2023-04-03T12:58:25;12.00;50.30
78649;DHT22;67962;47.310;9.642;2023-04-03T13:01:04;11.90;50.20
78649;DHT22;67962;47.310;9.642;2023-04-03T13:03:38;11.90;49.00
78649;DHT22;67962;47.310;9.642;2023-04-03T13:06:05;11.90;49.00
78649;DHT22;67962;47.310;9.642;2023-04-03T13:08:31;11.90;48.70
78649;DHT22;67962;47.310;9.642;2023-04-03T13:11:08;11.90;48.60
78649;DHT22;67962;47.310;9.642;2023-04-03T13:13:35;11.90;48.70
78649;DHT22;67962;47.310;9.642;2023-04-03T13:16:11;11.90;49.20
78649;DHT22;67962;47.310;9.642;2023-04-03T13:18:38;11.90;49.10
78649;DHT22;67962;47.310;9.642;2023-04-03T13:21:07;11.90;47.60
78649;DHT22;67962;47.310;9.642;2023-04-03T13:23:36;11.80;48.30
78649;DHT22;67962;47.310;9.642;2023-04-03T13:26:03;11.80;47.30
78649;DHT22;67962;47.310;9.642;2023-04-03T13:28:31;11.70;47.20
78649;DHT22;67962;47.310;9.642;2023-04-03T13:31:02;11.60;47.20
78649;DHT22;67962;47.310;9.642;2023-04-03T13:33:31;11.60;48.40
78649;DHT22;67962;47.310;9.642;2023-04-03T13:36:05;11.80;48.80
78649;DHT22;67962;47.310;9.642;2023-04-03T13:38:33;12.00;46.70
78649;DHT22;67962;47.310;9.642;2023-04-03T13:41:23;11.90;44.80
78649;DHT22;67962;47.310;9.642;2023-04-03T13:43:49;11.70;45.90
78649;DHT22;67962;47.310;9.642;2023-04-03T13:48:45;11.60;46.20
78649;DHT22;67962;47.310;9.642;2023-04-03T13:53:56;11.40;44.40
78649;DHT22;67962;47.310;9.642;2023-04-03T13:59:20;11.20;45.00
78649;DHT22;67962;47.310;9.642;2023-04-03T14:01:47;11.00;45.30
78649;DHT22;67962;47.310;9.642;2023-04-03T14:04:19;11.10;46.70
78649;DHT22;67962;47.310;9.642;2023-04-03T14:06:46;10.90;44.20
78649;DHT22;67962;47.310;9.642;2023-04-03T14:09:13;10.80;45.40
78649;DHT22;67962;47.310;9.642;2023-04-03T14:11:39;10.90;46.60
78649;DHT22;67962;47.310;9.642;2023-04-03T14:14:13;11.00;47.20
78649;DHT22;67962;47.310;9.642;2023-04-03T14:21:28;11.20;44.40
78649;DHT22;67962;47.310;9.642;2023-04-03T14:23:54;11.00;45.30
78649;DHT22;67962;47.310;9.642;2023-04-03T14:26:23;10.70;44.70
78649;DHT22;67962;47.310;9.642;2023-04-03T14:28:53;10.70;46.20
78649;DHT22;67962;47.310;9.642;2023-04-03T14:33:45;10.30;46.70
78649;DHT22;67962;47.310;9.642;2023-04-03T14:38:42;10.40;45.60
78649;DHT22;67962;47.310;9.642;2023-04-03T14:41:09;10.30;46.50
78649;DHT22;67962;47.310;9.642;2023-04-03T14:43:36;10.30;46.60
78649;DHT22;67962;47.310;9.642;2023-04-03T14:48:28;10.30;46.80
78649;DHT22;67962;47.310;9.642;2023-04-03T14:50:55;10.30;46.80
78649;DHT22;67962;47.310;9.642;2023-04-03T14:53:21;10.30;45.70
78649;DHT22;67962;47.310;9.642;2023-04-03T14:58:19;10.00;45.60
78649;DHT22;67962;47.310;9.642;2023-04-03T15:00:45;9.80;45.80
78649;DHT22;67962;47.310;9.642;2023-04-03T15:03:19;9.60;47.60
78649;DHT22;67962;47.310;9.642;2023-04-03T15:05:46;9.70;48.60
78649;DHT22;67962;47.310;9.642;2023-04-03T15:08:27;9.70;48.10
78649;DHT22;67962;47.310;9.642;2023-04-03T15:10:55;9.80;48.40
78649;DHT22;67962;47.310;9.642;2023-04-03T15:13:22;9.90;48.50
78649;DHT22;67962;47.310;9.642;2023-04-03T15:15:48;10.00;46.80
78649;DHT22;67962;47.310;9.642;2023-04-03T15:18:21;9.90;46.30
78649;DHT22;67962;47.310;9.642;2023-04-03T15:20:48;10.00;47.20
78649;DHT22;67962;47.310;9.642;2023-04-03T15:23:15;10.00;45.50
78649;DHT22;67962;47.310;9.642;2023-04-03T15:25:46;9.80;46.80
78649;DHT22;67962;47.310;9.642;2023-04-03T15:28:23;9.80;48.10
78649;DHT22;67962;47.310;9.642;2023-04-03T15:30:51;10.00;47.00
78649;DHT22;67962;47.310;9.642;2023-04-03T15:33:17;10.00;46.50
78649;DHT22;67962;47.310;9.642;2023-04-03T15:35:43;10.10;45.00
78649;DHT22;67962;47.310;9.642;2023-04-03T15:38:09;9.90;46.80
78649;DHT22;67962;47.310;9.642;2023-04-03T15:40:35;9.80;46.20
78649;DHT22;67962;47.310;9.642;2023-04-03T15:43:01;9.90;47.10
78649;DHT22;67962;47.310;9.642;2023-04-03T15:45:31;10.00;48.00
78649;DHT22;67962;47.310;9.642;2023-04-03T15:47:57;10.00;47.50
78649;DHT22;67962;47.310;9.642;2023-04-03T15:50:23;10.00;48.40
78649;DHT22;67962;47.310;9.642;2023-04-03T15:52:50;10.10;48.10
78649;DHT22;67962;47.310;9.642;2023-04-03T15:55:25;10.10;48.30
78649;DHT22;67962;47.310;9.642;2023-04-03T15:57:52;10.00;48.10
78649;DHT22;67962;47.310;9.642;2023-04-03T16:00:19;10.20;47.60
78649;DHT22;67962;47.310;9.642;2023-04-03T16:02:46;10.10;47.20
78649;DHT22;67962;47.310;9.642;2023-04-03T16:05:13;10.10;47.80
78649;DHT22;67962;47.310;9.642;2023-04-03T16:07:41;10.10;48.60
78649;DHT22;67962;47.310;9.642;2023-04-03T16:10:08;10.20;48.60
78649;DHT22;67962;47.310;9.642;2023-04-03T16:12:35;10.20;47.60
78649;DHT22;67962;47.310;9.642;2023-04-03T16:15:01;10.20;46.90
78649;DHT22;67962;47.310;9.642;2023-04-03T16:17:27;10.20;45.80
78649;DHT22;67962;47.310;9.642;2023-04-03T16:19:54;10.00;45.70
78649;DHT22;67962;47.310;9.642;2023-04-03T16:22:21;9.90;45.70
78649;DHT22;67962;47.310;9.642;2023-04-03T16:24:49;9.80;46.30
78649;DHT22;67962;47.310;9.642;2023-04-03T16:27:15;9.80;47.20
78649;DHT22;67962;47.310;9.642;2023-04-03T16:29:41;9.80;48.40
78649;DHT22;67962;47.310;9.642;2023-04-03T16:32:07;9.80;48.60
78649;DHT22;67962;47.310;9.642;2023-04-03T16:34:33;9.80;47.90
78649;DHT22;67962;47.310;9.642;2023-04-03T16:36:59;9.90;47.50
78649;DHT22;67962;47.310;9.642;2023-04-03T16:39:25;9.70;46.90
78649;DHT22;67962;47.310;9.642;2023-04-03T16:41:51;9.60;45.70
78649;DHT22;67962;47.310;9.642;2023-04-03T16:44:17;9.40;47.10
78649;DHT22;67962;47.310;9.642;2023-04-03T16:46:43;9.20;48.00
78649;DHT22;67962;47.310;9.642;2023-04-03T16:49:08;9.20;48.70
78649;DHT22;67962;47.310;9.642;2023-04-03T16:51:34;9.20;48.90
78649;DHT22;67962;47.310;9.642;2023-04-03T16:54:00;9.20;48.60
78649;DHT22;67962;47.310;9.642;2023-04-03T16:56:26;9.10;49.20
78649;DHT22;67962;47.310;9.642;2023-04-03T16:58:53;9.10;49.40
78649;DHT22;67962;47.310;9.642;2023-04-03T17:01:20;9.10;49.70
78649;DHT22;67962;47.310;9.642;2023-04-03T17:03:47;9.10;49.90
78649;DHT22;67962;47.310;9.642;2023-04-03T17:06:18;9.10;49.80
78649;DHT22;67962;47.310;9.642;2023-04-03T17:08:46;9.10;49.80
78649;DHT22;67962;47.310;9.642;2023-04-03T17:11:13;9.00;49.90
78649;DHT22;67962;47.310;9.642;2023-04-03T17:13:41;8.90;50.20
78649;DHT22;67962;47.310;9.642;2023-04-03T17:16:10;8.80;50.20
78649;DHT22;67962;47.310;9.642;2023-04-03T17:18:36;8.70;48.40
78649;DHT22;67962;47.310;9.642;2023-04-03T17:21:03;8.60;49.80
78649;DHT22;67962;47.310;9.642;2023-04-03T17:23:29;8.50;51.50
78649;DHT22;67962;47.310;9.642;2023-04-03T17:25:55;8.60;50.20
78649;DHT22;67962;47.310;9.642;2023-04-03T17:28:22;8.60;49.70
78649;DHT22;67962;47.310;9.642;2023-04-03T17:30:55;8.50;50.30
78649;DHT22;67962;47.310;9.642;2023-04-03T17:33:22;8.50;50.30
78649;DHT22;67962;47.310;9.642;2023-04-03T17:35:48;8.40;49.60
78649;DHT22;67962;47.310;9.642;2023-04-03T17:38:14;8.40;50.60
78649;DHT22;67962;47.310;9.642;2023-04-03T17:40:40;8.30;50.60
78649;DHT22;67962;47.310;9.642;2023-04-03T17:43:05;8.30;50.10